Time;durP1;ratioP1;P1;durP2;ratioP2;P2;SDS_P1;SDS_P2;PMS_P1;PMS_P2;Temp;Humidity;BMP_temperature;BMP_pressure;BME280_temperature;BME280_humidity;BME280_pressure;Samples;Min_cycle;Max_cycle;Signal;HPM_P1;HPM_P2
2023/09/10 00:00:51;;;;;;;9.43;6.35;;;19.80;99.90;;;;;;5013411;28;20210;-59
2023/09/10 00:03:18;;;;;;;9.50;6.18;;;19.70;99.90;;;;;;5013111;28;20257;-58
2023/09/10 00:05:44;;;;;;;9.25;6.65;;;19.60;99.90;;;;;;5013159;28;20211;-57
2023/09/10 00:08:11;;;;;;;7.53;6.57;;;19.50;99.90;;;;;;5013159;28;20219;-58
2023/09/10 00:10:41;;;;;;;7.70;6.22;;;19.50;99.90;;;;;;5013329;28;20210;-58
2023/09/10 00:13:08;;;;;;;13.32;6.85;;;19.60;99.90;;;;;;5012968;28;20215;-58
2023/09/10 00:15:35;;;;;;;8.77;6.65;;;19.60;99.90;;;;;;5013031;28;20214;-59
2023/09/10 00:18:02;;;;;;;11.00;6.50;;;19.50;99.90;;;;;;5012977;28;20199;-58
2023/09/10 00:20:29;;;;;;;7.80;6.50;;;19.50;99.90;;;;;;5013056;28;20218;-58
2023/09/10 00:22:56;;;;;;;9.13;6.57;;;19.60;99.90;;;;;;5012840;28;20620;-58
2023/09/10 00:25:23;;;;;;;9.20;7.68;;;19.60;99.90;;;;;;5012923;28;20214;-58
2023/09/10 00:27:51;;;;;;;9.85;7.63;;;19.60;99.90;;;;;;5012912;28;20661;-58
2023/09/10 00:30:18;;;;;;;11.82;7.47;;;19.60;99.90;;;;;;5012633;28;20650;-59
2023/09/10 00:32:44;;;;;;;10.30;7.88;;;19.60;99.90;;;;;;5012743;28;20230;-58
2023/09/10 00:35:11;;;;;;;11.95;7.70;;;19.60;99.90;;;;;;5012729;28;20210;-56
2023/09/10 00:37:37;;;;;;;9.95;7.90;;;19.60;99.90;;;;;;5012945;28;20203;-58
2023/09/10 00:40:05;;;;;;;10.77;7.95;;;19.50;99.90;;;;;;5012797;28;20225;-58
2023/09/10 00:42:32;;;;;;;10.00;7.82;;;19.50;99.90;;;;;;5012397;28;20241;-58
2023/09/10 00:45:00;;;;;;;11.10;8.10;;;19.50;99.90;;;;;;5012626;28;20207;-58
2023/09/10 00:47:27;;;;;;;9.65;7.70;;;19.60;99.90;;;;;;5012518;28;20210;-59
2023/09/10 00:49:54;;;;;;;9.80;7.28;;;19.60;99.90;;;;;;5012367;28;20529;-58
2023/09/10 00:52:22;;;;;;;9.55;6.93;;;19.50;99.90;;;;;;5012129;28;20218;-58
2023/09/10 00:54:50;;;;;;;10.55;7.28;;;19.50;99.90;;;;;;5012802;28;20641;-59
2023/09/10 00:57:17;;;;;;;9.60;7.60;;;19.50;99.90;;;;;;5012291;28;20210;-59
2023/09/10 00:59:45;;;;;;;16.30;7.78;;;19.50;99.90;;;;;;5012264;28;20234;-58
2023/09/10 01:02:15;;;;;;;8.90;6.93;;;19.50;99.90;;;;;;5012466;28;20209;-57
2023/09/10 01:04:42;;;;;;;10.30;7.20;;;19.50;99.90;;;;;;5012325;28;20561;-57
2023/09/10 01:07:09;;;;;;;9.75;7.72;;;19.50;99.90;;;;;;5012141;28;20199;-58
2023/09/10 01:09:36;;;;;;;12.27;8.70;;;19.50;99.90;;;;;;5011813;28;20218;-57
2023/09/10 01:12:07;;;;;;;12.02;8.93;;;19.40;99.90;;;;;;5011838;28;20661;-58
2023/09/10 01:14:38;;;;;;;13.82;8.80;;;19.40;99.90;;;;;;5011952;28;20210;-59
2023/09/10 01:17:15;;;;;;;11.20;7.78;;;19.40;99.90;;;;;;5011677;28;20207;-58
2023/09/10 01:19:53;;;;;;;10.45;7.53;;;19.40;99.90;;;;;;5004259;28;20230;-58
2023/09/10 01:22:26;;;;;;;11.30;8.10;;;19.40;99.90;;;;;;5011512;28;20203;-58
2023/09/10 01:24:55;;;;;;;12.32;7.82;;;19.40;99.90;;;;;;5012147;28;20261;-58
2023/09/10 01:27:22;;;;;;;11.70;8.65;;;19.40;99.90;;;;;;5012042;28;20217;-59
2023/09/10 01:29:49;;;;;;;10.90;7.35;;;19.40;99.90;;;;;;5011933;28;20227;-57
2023/09/10 01:32:24;;;;;;;9.75;7.35;;;19.40;99.90;;;;;;5011567;28;20603;-58
2023/09/10 01:34:56;;;;;;;12.63;7.22;;;19.40;99.90;;;;;;5012343;28;20273;-58
2023/09/10 01:37:29;;;;;;;9.75;7.65;;;19.30;99.90;;;;;;5011791;28;20229;-58
2023/09/10 01:39:59;;;;;;;7.85;6.63;;;19.30;99.90;;;;;;5011840;28;20223;-58
2023/09/10 01:42:26;;;;;;;13.27;7.25;;;19.30;99.90;;;;;;5011332;28;20226;-58
2023/09/10 01:44:54;;;;;;;9.77;6.45;;;19.40;99.90;;;;;;5011680;28;20218;-58
2023/09/10 01:47:21;;;;;;;7.32;6.05;;;19.30;99.90;;;;;;5011277;28;20203;-58
2023/09/10 01:49:48;;;;;;;9.45;7.05;;;19.20;99.90;;;;;;5011709;28;20227;-58
2023/09/10 01:52:15;;;;;;;13.30;6.82;;;19.20;99.90;;;;;;5011564;28;20222;-58
2023/09/10 01:54:42;;;;;;;10.50;6.57;;;19.20;99.90;;;;;;5011587;28;20203;-58
2023/09/10 01:57:10;;;;;;;7.53;6.78;;;19.10;99.90;;;;;;5011569;28;20207;-58
2023/09/10 01:59:36;;;;;;;11.55;6.82;;;19.10;99.90;;;;;;5011215;28;20230;-58
2023/09/10 02:02:03;;;;;;;7.30;6.25;;;19.10;99.90;;;;;;5011144;28;20199;-58
2023/09/10 02:04:30;;;;;;;7.35;6.43;;;19.00;99.90;;;;;;5011432;28;20217;-59
2023/09/10 02:06:57;;;;;;;13.48;7.07;;;19.00;99.90;;;;;;5011631;28;20222;-58
2023/09/10 02:09:24;;;;;;;7.60;6.35;;;19.10;99.90;;;;;;5011389;28;20231;-58
2023/09/10 02:11:50;;;;;;;8.77;6.50;;;19.20;99.90;;;;;;5011143;28;20219;-59
2023/09/10 02:14:18;;;;;;;8.95;6.45;;;19.20;99.90;;;;;;5010935;28;20214;-58
2023/09/10 02:16:45;;;;;;;8.60;6.50;;;19.20;99.90;;;;;;5011193;28;20237;-58
2023/09/10 02:19:12;;;;;;;11.48;6.43;;;19.20;99.90;;;;;;5023678;23;20242;-60
2023/09/10 02:21:39;;;;;;;9.60;6.60;;;19.10;99.90;;;;;;4991443;28;20286;-60
2023/09/10 02:24:06;;;;;;;8.23;6.60;;;19.00;99.90;;;;;;4991156;28;20230;-60
2023/09/10 02:26:32;;;;;;;11.98;7.20;;;19.10;99.90;;;;;;4991486;28;20219;-60
2023/09/10 02:28:59;;;;;;;8.95;6.32;;;19.10;99.90;;;;;;4993095;28;20227;-60
2023/09/10 02:31:27;;;;;;;10.20;5.85;;;19.00;99.90;;;;;;4985608;28;20296;-60
2023/09/10 02:34:00;;;;;;;11.02;7.32;;;19.00;99.90;;;;;;4983542;28;20302;-60
2023/09/10 02:36:26;;;;;;;11.73;7.22;;;19.00;99.90;;;;;;4985657;28;20218;-60
2023/09/10 02:38:53;;;;;;;9.20;7.18;;;18.80;99.90;;;;;;4987309;28;20227;-60
2023/09/10 02:41:20;;;;;;;12.10;7.57;;;18.80;99.90;;;;;;4986390;28;20211;-61
2023/09/10 02:43:46;;;;;;;11.85;7.32;;;18.90;99.90;;;;;;4983604;28;20207;-61
2023/09/10 02:46:13;;;;;;;9.10;7.50;;;18.90;99.90;;;;;;4983970;28;20244;-61
2023/09/10 02:48:41;;;;;;;10.73;7.65;;;18.80;99.90;;;;;;4987308;28;20219;-61
2023/09/10 02:51:08;;;;;;;9.73;7.60;;;18.80;99.90;;;;;;4987177;28;20227;-61
2023/09/10 02:53:34;;;;;;;12.57;7.50;;;18.80;99.90;;;;;;4984065;28;20246;-60
2023/09/10 02:56:02;;;;;;;10.45;7.00;;;18.70;99.90;;;;;;4983630;28;20215;-61
2023/09/10 02:58:29;;;;;;;10.57;6.88;;;18.80;99.90;;;;;;4985158;28;20321;-61
2023/09/10 03:00:56;;;;;;;8.10;7.22;;;18.80;99.90;;;;;;4986938;28;20208;-61
2023/09/10 03:03:23;;;;;;;10.45;7.20;;;18.70;99.90;;;;;;4985763;28;20210;-61
2023/09/10 03:05:51;;;;;;;10.10;7.28;;;18.70;99.90;;;;;;4983641;28;20480;-61
2023/09/10 03:08:18;;;;;;;12.27;7.68;;;18.70;99.90;;;;;;4983497;28;20580;-61
2023/09/10 03:10:44;;;;;;;10.77;6.93;;;18.70;99.90;;;;;;4986614;28;20208;-61
2023/09/10 03:13:11;;;;;;;7.38;6.65;;;18.60;99.90;;;;;;4986546;28;20220;-61
2023/09/10 03:15:38;;;;;;;9.07;6.85;;;18.60;99.90;;;;;;4983620;28;20204;-60
2023/09/10 03:18:05;;;;;;;10.35;7.53;;;18.60;99.90;;;;;;4982876;28;20216;-60
2023/09/10 03:20:32;;;;;;;9.48;7.00;;;18.60;99.90;;;;;;4984883;28;20866;-60
2023/09/10 03:23:02;;;;;;;10.50;6.90;;;18.60;99.90;;;;;;4986168;28;20242;-61
2023/09/10 03:25:28;;;;;;;7.72;6.25;;;18.60;99.90;;;;;;4984799;28;20208;-60
2023/09/10 03:27:55;;;;;;;8.43;7.10;;;18.50;99.90;;;;;;4983484;28;20208;-62
2023/09/10 03:30:22;;;;;;;11.52;7.10;;;18.60;99.90;;;;;;4983933;28;20234;-61
2023/09/10 03:32:50;;;;;;;9.10;6.72;;;18.60;99.90;;;;;;4986105;28;20239;-61
2023/09/10 03:35:17;;;;;;;10.60;6.65;;;18.60;99.90;;;;;;4986501;28;20662;-60
2023/09/10 03:37:43;;;;;;;9.35;6.68;;;18.60;99.90;;;;;;4983054;28;20209;-61
2023/09/10 03:40:12;;;;;;;8.93;6.95;;;18.60;99.90;;;;;;4982563;28;20221;-61
2023/09/10 03:42:39;;;;;;;7.68;6.65;;;18.60;99.90;;;;;;4985619;28;20208;-61
2023/09/10 03:45:06;;;;;;;10.02;6.70;;;18.60;99.90;;;;;;4986170;28;20203;-61
2023/09/10 03:47:33;;;;;;;9.07;6.68;;;18.60;99.90;;;;;;4983860;28;20207;-60
2023/09/10 03:50:00;;;;;;;10.45;6.30;;;18.70;99.90;;;;;;4982668;28;20256;-61
2023/09/10 03:52:27;;;;;;;8.65;7.18;;;18.70;99.90;;;;;;4983493;28;20220;-62
2023/09/10 03:54:54;;;;;;;12.55;6.88;;;18.60;99.90;;;;;;4986185;28;20211;-62
2023/09/10 03:57:22;;;;;;;9.75;7.00;;;18.70;99.90;;;;;;4985648;28;20216;-62
2023/09/10 03:59:48;;;;;;;10.55;6.95;;;18.70;99.90;;;;;;4982799;28;20228;-62
2023/09/10 04:02:15;;;;;;;12.07;7.05;;;18.70;99.90;;;;;;4982197;28;20223;-62
2023/09/10 04:04:42;;;;;;;9.90;7.03;;;18.70;99.90;;;;;;4985685;28;20243;-62
2023/09/10 04:07:09;;;;;;;11.55;6.55;;;18.60;99.90;;;;;;4986169;28;20207;-61
2023/09/10 04:09:35;;;;;;;7.38;6.50;;;18.50;99.90;;;;;;4983307;28;20224;-61
2023/09/10 04:12:02;;;;;;;6.78;6.07;;;18.50;99.90;;;;;;4982296;28;20689;-61
2023/09/10 04:14:30;;;;;;;7.80;6.43;;;18.40;99.90;;;;;;4983890;28;20224;-61
2023/09/10 04:16:57;;;;;;;10.60;7.80;;;18.50;99.90;;;;;;4985685;28;20244;-61
2023/09/10 04:19:24;;;;;;;9.20;7.32;;;18.50;99.90;;;;;;4984255;28;20231;-61
2023/09/10 04:21:51;;;;;;;8.60;7.13;;;18.50;99.90;;;;;;4982443;28;20211;-61
2023/09/10 04:24:17;;;;;;;9.40;7.00;;;18.50;99.90;;;;;;4982209;28;20595;-61
2023/09/10 04:26:44;;;;;;;9.05;7.05;;;18.50;99.90;;;;;;4990179;28;20208;-61
2023/09/10 04:29:11;;;;;;;11.45;6.43;;;18.50;99.90;;;;;;4982340;28;20300;-62
2023/09/10 04:31:40;;;;;;;9.07;7.13;;;18.40;99.90;;;;;;4984505;28;20314;-61
2023/09/10 04:34:07;;;;;;;8.55;6.32;;;18.40;99.90;;;;;;4985058;28;20219;-61
2023/09/10 04:36:34;;;;;;;12.30;6.47;;;18.40;99.90;;;;;;4983120;28;20215;-60
2023/09/10 04:39:07;;;;;;;7.85;6.63;;;18.30;99.90;;;;;;4982149;28;20234;-62
2023/09/10 04:41:33;;;;;;;9.45;7.32;;;18.30;99.90;;;;;;4983935;28;20216;-62
2023/09/10 04:44:00;;;;;;;8.93;6.80;;;18.30;99.90;;;;;;4984807;28;20614;-61
2023/09/10 04:46:27;;;;;;;11.73;7.03;;;18.30;99.90;;;;;;4983858;28;20212;-62
2023/09/10 04:48:58;;;;;;;11.18;6.93;;;18.20;99.90;;;;;;4982016;28;20283;-61
2023/09/10 04:51:24;;;;;;;8.38;7.20;;;18.20;99.90;;;;;;4981754;28;20239;-62
2023/09/10 04:53:51;;;;;;;8.57;6.95;;;18.10;99.90;;;;;;4984833;28;20220;-62
2023/09/10 04:56:18;;;;;;;9.70;7.18;;;18.20;99.90;;;;;;4985189;28;20211;-61
2023/09/10 04:58:45;;;;;;;11.13;6.63;;;18.10;99.90;;;;;;4985029;28;20227;-62
2023/09/10 05:01:12;;;;;;;11.70;7.13;;;18.20;99.90;;;;;;4984768;28;20266;-61
2023/09/10 05:03:41;;;;;;;8.68;7.05;;;18.20;99.90;;;;;;4982035;28;20325;-61
2023/09/10 05:06:09;;;;;;;11.32;7.20;;;18.20;99.90;;;;;;4981750;28;20216;-61
2023/09/10 05:08:36;;;;;;;8.35;6.03;;;18.20;99.90;;;;;;4983776;28;20236;-62
2023/09/10 05:11:03;;;;;;;8.45;6.65;;;18.30;99.90;;;;;;4984948;28;20228;-62
2023/09/10 05:13:30;;;;;;;11.90;6.60;;;18.30;99.90;;;;;;4982954;28;20263;-62
2023/09/10 05:15:57;;;;;;;10.75;6.80;;;18.40;99.90;;;;;;4981129;28;20560;-61
2023/09/10 05:18:24;;;;;;;9.93;6.57;;;18.40;99.90;;;;;;4981781;28;20216;-61
2023/09/10 05:20:52;;;;;;;7.00;6.30;;;18.40;99.90;;;;;;4984572;28;20208;-62
2023/09/10 05:23:21;;;;;;;9.32;6.45;;;18.50;99.90;;;;;;4984241;28;20214;-62
2023/09/10 05:25:48;;;;;;;10.68;7.10;;;18.60;99.90;;;;;;4984380;28;20561;-62
2023/09/10 05:28:15;;;;;;;7.65;6.55;;;18.50;99.90;;;;;;4984232;28;20215;-61
2023/09/10 05:30:42;;;;;;;8.68;7.18;;;18.60;99.90;;;;;;4981366;28;20204;-61
2023/09/10 05:33:08;;;;;;;8.98;7.15;;;18.70;99.90;;;;;;4980594;28;20227;-61
2023/09/10 05:35:35;;;;;;;12.77;6.82;;;18.70;99.90;;;;;;4982832;28;20212;-62
2023/09/10 05:38:02;;;;;;;7.40;6.57;;;18.80;99.90;;;;;;4984509;28;20211;-62
2023/09/10 05:40:36;;;;;;;8.20;7.07;;;18.90;99.90;;;;;;4982807;28;20235;-61
2023/09/10 05:43:03;;;;;;;10.70;7.90;;;19.10;99.90;;;;;;4980644;28;20201;-61
2023/09/10 05:45:32;;;;;;;7.32;6.53;;;19.30;99.90;;;;;;4982172;28;20208;-62
2023/09/10 05:47:58;;;;;;;10.57;6.15;;;19.40;99.90;;;;;;4984406;28;20215;-61
2023/09/10 05:50:25;;;;;;;11.07;6.03;;;19.60;99.90;;;;;;4983733;28;20706;-62
2023/09/10 05:52:55;;;;;;;7.40;6.00;;;20.20;99.90;;;;;;4980434;28;20295;-61
2023/09/10 05:55:22;;;;;;;7.18;5.82;;;21.10;99.90;;;;;;4980756;28;20208;-61
2023/09/10 05:57:51;;;;;;;9.50;5.60;;;22.10;99.90;;;;;;4984083;28;20251;-61
2023/09/10 06:00:18;;;;;;;6.63;5.05;;;22.90;99.90;;;;;;4983790;28;20231;-62
2023/09/10 06:02:44;;;;;;;8.50;5.78;;;23.70;99.90;;;;;;4980147;28;20211;-62
2023/09/10 06:05:11;;;;;;;9.82;5.57;;;24.40;99.90;;;;;;4980652;28;20240;-61
2023/09/10 06:07:38;;;;;;;9.48;4.85;;;25.00;99.90;;;;;;4982716;28;20212;-62
2023/09/10 06:10:08;;;;;;;6.35;5.25;;;25.60;99.90;;;;;;4984241;28;20228;-62
2023/09/10 06:12:35;;;;;;;8.98;5.22;;;26.30;99.90;;;;;;4981725;28;20208;-61
2023/09/10 06:15:04;;;;;;;9.20;5.20;;;26.80;99.90;;;;;;4980311;28;20645;-61
2023/09/10 06:17:31;;;;;;;9.15;4.97;;;27.40;99.90;;;;;;4981570;28;20295;-62
2023/09/10 06:19:58;;;;;;;7.80;5.00;;;27.50;99.90;;;;;;4983498;28;20763;-61
2023/09/10 06:22:24;;;;;;;5.25;4.75;;;27.90;99.90;;;;;;4982665;28;20211;-62
2023/09/10 06:24:51;;;;;;;7.95;6.00;;;28.30;99.90;;;;;;4980474;28;20224;-61
2023/09/10 06:27:18;;;;;;;6.22;4.45;;;28.80;99.90;;;;;;4980289;28;20219;-61
2023/09/10 06:29:45;;;;;;;9.48;4.90;;;29.20;99.90;;;;;;4983282;28;20712;-61
2023/09/10 06:32:13;;;;;;;8.85;5.38;;;29.40;99.90;;;;;;4984307;28;20210;-62
2023/09/10 06:34:40;;;;;;;6.85;5.10;;;29.40;99.90;;;;;;4983687;28;20227;-63
2023/09/10 06:37:06;;;;;;;7.63;4.93;;;29.70;99.90;;;;;;4981407;28;20204;-62
2023/09/10 06:39:38;;;;;;;6.47;4.60;;;29.90;99.90;;;;;;4982840;28;20311;-62
2023/09/10 06:42:05;;;;;;;5.78;4.70;;;29.70;99.90;;;;;;4985062;28;20211;-63
2023/09/10 06:44:32;;;;;;;5.88;5.05;;;29.20;99.90;;;;;;4982759;28;20210;-62
2023/09/10 06:47:00;;;;;;;18.75;13.75;;;28.50;99.90;;;;;;4983191;28;20208;-62
2023/09/10 06:49:28;;;;;;;9.02;6.15;;;27.70;99.90;;;;;;4984886;28;20283;-62
2023/09/10 06:51:56;;;;;;;6.40;5.00;;;27.20;99.90;;;;;;4986973;28;20208;-62
2023/09/10 06:54:24;;;;;;;7.40;4.78;;;26.80;99.90;;;;;;4984127;28;20234;-61
2023/09/10 06:56:50;;;;;;;8.88;5.10;;;26.70;99.90;;;;;;4980114;28;20296;-61
2023/09/10 06:59:17;;;;;;;9.25;5.00;;;27.50;99.90;;;;;;4980335;28;20239;-61
2023/09/10 07:01:45;;;;;;;6.57;4.93;;;28.60;99.90;;;;;;4987042;28;20276;-61
2023/09/10 07:04:19;;;;;;;8.00;4.75;;;29.90;99.90;;;;;;4984786;28;20196;-62
2023/09/10 07:06:47;;;;;;;8.05;4.68;;;31.10;99.90;;;;;;4980173;28;20205;-62
2023/09/10 07:09:15;;;;;;;5.35;4.45;;;32.20;99.90;;;;;;4979893;28;20683;-62
2023/09/10 07:11:41;;;;;;;7.70;4.70;;;32.50;99.90;;;;;;4981946;28;20216;-61
2023/09/10 07:14:08;;;;;;;8.02;4.95;;;32.40;99.90;;;;;;4983395;28;20220;-61
2023/09/10 07:16:35;;;;;;;6.38;4.55;;;32.30;99.90;;;;;;4984928;28;20606;-61
2023/09/10 07:19:02;;;;;;;6.95;4.80;;;32.70;99.90;;;;;;4983035;28;20250;-61
2023/09/10 07:21:29;;;;;;;6.10;4.68;;;33.00;99.90;;;;;;4983971;28;20244;-62
2023/09/10 07:23:57;;;;;;;12.52;7.22;;;33.20;99.90;;;;;;4986501;28;20204;-62
2023/09/10 07:26:24;;;;;;;9.00;4.80;;;33.80;99.90;;;;;;4986433;28;20258;-61
2023/09/10 07:28:50;;;;;;;8.23;5.10;;;34.60;99.90;;;;;;4982994;28;20235;-62
2023/09/10 07:31:17;;;;;;;9.77;5.03;;;35.20;97.90;;;;;;4983023;28;20636;-61
2023/09/10 07:33:44;;;;;;;7.53;5.00;;;35.80;96.50;;;;;;4985567;28;20238;-61
2023/09/10 07:36:11;;;;;;;6.15;4.70;;;36.30;94.60;;;;;;4986682;28;20591;-61
2023/09/10 07:38:38;;;;;;;8.48;5.10;;;36.50;93.80;;;;;;4984234;28;20227;-61
2023/09/10 07:41:06;;;;;;;8.70;5.10;;;37.00;92.00;;;;;;4982640;28;20236;-61
2023/09/10 07:43:32;;;;;;;7.30;5.15;;;37.20;91.20;;;;;;4983474;28;20215;-61
2023/09/10 07:45:59;;;;;;;10.65;5.18;;;37.30;90.40;;;;;;4985907;28;20204;-61
2023/09/10 07:48:26;;;;;;;8.02;5.85;;;37.20;89.50;;;;;;4985537;28;20214;-61
2023/09/10 07:50:56;;;;;;;8.38;5.00;;;36.90;90.30;;;;;;4982816;28;20212;-62
2023/09/10 07:53:23;;;;;;;7.55;4.95;;;36.90;90.00;;;;;;4982330;28;20298;-61
2023/09/10 07:55:51;;;;;;;8.23;5.20;;;37.10;89.70;;;;;;4986150;28;20215;-62
2023/09/10 07:58:19;;;;;;;5.88;5.25;;;37.30;88.20;;;;;;4985733;28;20218;-62
2023/09/10 08:00:46;;;;;;;9.15;5.38;;;37.60;86.60;;;;;;4982980;28;20587;-61
2023/09/10 08:03:14;;;;;;;7.18;5.80;;;37.30;86.20;;;;;;4982457;28;20200;-61
2023/09/10 08:05:41;;;;;;;8.93;5.13;;;36.50;88.40;;;;;;4984454;28;20794;-61
2023/09/10 08:08:08;;;;;;;10.57;5.53;;;35.50;90.70;;;;;;4985710;28;20275;-61
2023/09/10 08:10:35;;;;;;;10.20;6.28;;;34.30;91.80;;;;;;4983956;28;20204;-61
2023/09/10 08:13:04;;;;;;;9.70;6.40;;;33.40;93.60;;;;;;4982106;28;20324;-61
2023/09/10 08:15:32;;;;;;;13.25;5.78;;;32.50;94.70;;;;;;4983096;28;20235;-61
2023/09/10 08:18:00;;;;;;;9.32;5.78;;;31.70;96.30;;;;;;4985744;28;20662;-61
2023/09/10 08:20:26;;;;;;;8.32;5.60;;;31.00;97.50;;;;;;4984888;28;20266;-61
2023/09/10 08:22:53;;;;;;;10.07;8.75;;;30.50;98.70;;;;;;4981659;28;20204;-61
2023/09/10 08:25:20;;;;;;;8.93;7.43;;;30.10;99.90;;;;;;4981990;28;20200;-61
2023/09/10 08:27:47;;;;;;;9.10;5.68;;;29.70;99.90;;;;;;4985279;28;20208;-62
2023/09/10 08:30:14;;;;;;;10.35;5.85;;;29.30;99.90;;;;;;4985517;28;20227;-61
2023/09/10 08:32:45;;;;;;;8.02;6.45;;;29.00;99.90;;;;;;4982973;28;20215;-61
2023/09/10 08:35:12;;;;;;;10.20;6.22;;;28.50;99.90;;;;;;4981851;28;20227;-61
2023/09/10 08:37:38;;;;;;;12.10;6.28;;;28.20;99.90;;;;;;4983481;28;20208;-62
2023/09/10 08:40:08;;;;;;;11.48;6.20;;;27.80;99.90;;;;;;4984994;28;20246;-62
2023/09/10 08:42:45;;;;;;;8.88;5.93;;;27.50;99.90;;;;;;4983414;28;20229;-62
2023/09/10 08:45:12;;;;;;;10.43;6.38;;;27.20;99.90;;;;;;4981627;28;20204;-62
2023/09/10 08:47:40;;;;;;;9.75;5.85;;;27.20;99.90;;;;;;4983176;28;20213;-62
2023/09/10 08:50:11;;;;;;;7.65;6.30;;;27.20;99.90;;;;;;4984725;28;20226;-62
2023/09/10 08:52:39;;;;;;;15.13;7.47;;;27.40;99.90;;;;;;4982912;28;20211;-61
2023/09/10 08:55:07;;;;;;;8.93;6.50;;;27.40;99.90;;;;;;4981434;28;20275;-61
2023/09/10 08:57:37;;;;;;;6.43;5.80;;;27.50;99.90;;;;;;4982753;28;20251;-61
2023/09/10 09:00:12;;;;;;;8.50;6.70;;;27.60;99.90;;;;;;4984970;28;20231;-61
2023/09/10 09:02:39;;;;;;;8.45;6.18;;;27.70;99.90;;;;;;4984451;28;20269;-61
2023/09/10 09:05:07;;;;;;;10.68;6.20;;;27.70;99.90;;;;;;4984961;28;20200;-61
2023/09/10 09:07:41;;;;;;;10.55;6.13;;;27.70;99.90;;;;;;4983413;28;20219;-61
2023/09/10 09:10:10;;;;;;;7.88;5.60;;;27.80;99.90;;;;;;4981175;28;20224;-61
2023/09/10 09:12:39;;;;;;;9.43;6.15;;;27.80;99.90;;;;;;4982127;28;20818;-61
2023/09/10 09:15:09;;;;;;;11.82;6.25;;;27.80;99.90;;;;;;4984218;28;20239;-61
2023/09/10 09:17:38;;;;;;;9.65;6.15;;;27.90;99.90;;;;;;4983122;28;20355;-61
2023/09/10 09:20:11;;;;;;;8.18;5.40;;;27.90;99.90;;;;;;4981038;28;20740;-61
2023/09/10 09:22:41;;;;;;;8.38;6.47;;;28.00;99.90;;;;;;4982260;28;20609;-61
2023/09/10 09:25:09;;;;;;;8.93;6.07;;;28.00;99.90;;;;;;4984331;28;20219;-61
2023/09/10 09:27:36;;;;;;;8.88;5.72;;;28.00;99.90;;;;;;4982860;28;20681;-61
2023/09/10 09:30:06;;;;;;;7.95;5.70;;;28.10;99.90;;;;;;4981003;28;20250;-62
2023/09/10 09:32:34;;;;;;;7.07;5.50;;;28.20;99.90;;;;;;4981471;28;20266;-61
2023/09/10 09:35:02;;;;;;;9.88;5.80;;;28.30;99.90;;;;;;4984278;28;20243;-62
2023/09/10 09:37:31;;;;;;;11.18;5.57;;;28.50;99.90;;;;;;4983316;28;20219;-61
2023/09/10 09:39:59;;;;;;;7.03;5.35;;;28.60;99.90;;;;;;4980803;28;20220;-60
2023/09/10 09:42:27;;;;;;;11.75;6.07;;;28.70;99.90;;;;;;4980328;28;20219;-60
2023/09/10 09:44:55;;;;;;;10.98;5.70;;;28.80;99.90;;;;;;4988516;28;20207;-61
2023/09/10 09:47:21;;;;;;;8.75;5.32;;;28.90;99.90;;;;;;4981090;28;20244;-60
2023/09/10 09:49:49;;;;;;;8.40;5.22;;;29.00;99.90;;;;;;4983378;28;20247;-60
2023/09/10 09:52:17;;;;;;;7.35;4.90;;;29.10;99.90;;;;;;4983449;28;20208;-61
2023/09/10 09:54:45;;;;;;;7.43;4.78;;;29.00;99.90;;;;;;4981580;28;20673;-61
2023/09/10 09:57:13;;;;;;;7.32;5.00;;;29.00;99.90;;;;;;4980415;28;20709;-66
2023/09/10 09:59:40;;;;;;;8.77;4.55;;;29.00;99.90;;;;;;4982536;28;20244;-61
2023/09/10 10:02:11;;;;;;;7.53;5.15;;;29.00;99.90;;;;;;4984365;28;20207;-61
2023/09/10 10:04:40;;;;;;;7.72;4.90;;;29.10;99.90;;;;;;4982564;28;20219;-61
2023/09/10 10:07:07;;;;;;;10.05;5.25;;;29.20;99.90;;;;;;4980409;28;20204;-61
2023/09/10 10:09:37;;;;;;;6.70;4.78;;;29.20;99.90;;;;;;4980703;28;20224;-61
2023/09/10 10:12:04;;;;;;;7.93;4.45;;;29.30;99.90;;;;;;4983333;28;20681;-60
2023/09/10 10:14:33;;;;;;;9.73;5.35;;;29.20;99.90;;;;;;4982851;28;20661;-62
2023/09/10 10:17:01;;;;;;;6.82;5.35;;;29.20;99.90;;;;;;4980308;28;20200;-61
2023/09/10 10:19:30;;;;;;;7.18;5.20;;;29.20;99.90;;;;;;4980227;28;20251;-61
2023/09/10 10:21:57;;;;;;;9.25;4.90;;;29.20;99.90;;;;;;4983912;28;20227;-60
2023/09/10 10:24:24;;;;;;;7.22;4.57;;;29.10;99.90;;;;;;4984612;28;20215;-61
2023/09/10 10:26:52;;;;;;;10.18;4.97;;;29.10;99.90;;;;;;4983215;28;20311;-61
2023/09/10 10:29:19;;;;;;;6.03;4.57;;;29.20;99.90;;;;;;4983500;28;20231;-60
2023/09/10 10:31:53;;;;;;;7.10;4.95;;;29.30;99.90;;;;;;4981286;28;20203;-61
2023/09/10 10:34:22;;;;;;;13.02;5.15;;;29.60;99.90;;;;;;4979813;28;20208;-61
2023/09/10 10:36:58;;;;;;;8.48;4.90;;;29.70;99.90;;;;;;4982651;28;20207;-62
2023/09/10 10:39:32;;;;;;;8.80;5.28;;;29.70;99.90;;;;;;4983192;28;20612;-62
2023/09/10 10:42:03;;;;;;;6.32;4.93;;;29.70;99.90;;;;;;4984580;28;20222;-61
2023/09/10 10:44:34;;;;;;;6.70;4.68;;;29.70;99.90;;;;;;4983832;28;20204;-61
2023/09/10 10:47:11;;;;;;;6.97;4.63;;;29.70;99.90;;;;;;4980709;28;20243;-61
2023/09/10 10:49:43;;;;;;;10.43;5.15;;;29.60;99.90;;;;;;4982977;28;20243;-62
2023/09/10 10:52:11;;;;;;;6.60;4.78;;;29.70;99.90;;;;;;4987039;28;20710;-61
2023/09/10 10:54:40;;;;;;;8.38;4.72;;;29.90;99.90;;;;;;4986028;28;20231;-61
2023/09/10 10:57:09;;;;;;;6.65;5.10;;;30.00;99.90;;;;;;4984384;28;20208;-61
2023/09/10 10:59:36;;;;;;;7.75;4.90;;;30.20;99.90;;;;;;4985392;28;20714;-60
2023/09/10 11:02:13;;;;;;;5.53;5.03;;;30.30;99.90;;;;;;4988044;28;20214;-62
2023/09/10 11:04:54;;;;;;;5.78;4.50;;;30.40;99.90;;;;;;4986061;28;20211;-61
2023/09/10 11:07:22;;;;;;;7.63;4.43;;;30.30;99.90;;;;;;4983542;28;20292;-61
2023/09/10 11:09:48;;;;;;;7.13;4.55;;;30.30;99.90;;;;;;4985694;28;20232;-62
2023/09/10 11:12:16;;;;;;;8.70;4.47;;;30.40;99.90;;;;;;4986447;28;20558;-61
2023/09/10 11:15:10;;;;;;;5.20;3.88;;;30.30;99.90;;;;;;4984897;28;20223;-61
2023/09/10 11:17:38;;;;;;;11.10;4.25;;;30.30;99.90;;;;;;4984053;28;20213;-61
2023/09/10 11:20:06;;;;;;;4.78;4.00;;;30.30;99.90;;;;;;4986719;28;20262;-61
2023/09/10 11:23:08;;;;;;;7.13;4.63;;;30.40;99.90;;;;;;4985881;28;20664;-62
2023/09/10 11:25:35;;;;;;;5.97;4.78;;;30.50;99.90;;;;;;4982894;28;20598;-61
2023/09/10 11:28:03;;;;;;;7.90;4.30;;;30.60;99.90;;;;;;4986493;28;20207;-61
2023/09/10 11:30:30;;;;;;;6.35;4.45;;;30.70;99.90;;;;;;4986507;28;20605;-62
2023/09/10 11:33:30;;;;;;;8.10;4.32;;;30.60;99.90;;;;;;4986081;28;20211;-62
2023/09/10 11:35:59;;;;;;;6.63;4.30;;;30.60;99.90;;;;;;4986408;28;20219;-61
2023/09/10 11:38:29;;;;;;;6.22;4.93;;;30.80;99.90;;;;;;4986159;28;20673;-61
2023/09/10 11:40:57;;;;;;;7.63;4.47;;;30.80;99.90;;;;;;4986301;28;20242;-61
2023/09/10 11:43:26;;;;;;;6.68;4.30;;;30.80;99.90;;;;;;4986157;28;20218;-61
2023/09/10 11:45:53;;;;;;;6.85;4.00;;;30.90;99.90;;;;;;4983205;28;20204;-62
2023/09/10 11:48:20;;;;;;;8.45;4.55;;;30.90;99.90;;;;;;4982943;28;20230;-61
2023/09/10 11:50:50;;;;;;;6.10;4.75;;;31.00;99.90;;;;;;4984876;28;20208;-61
2023/09/10 11:53:18;;;;;;;9.80;4.20;;;31.10;99.90;;;;;;4985948;28;20701;-61
2023/09/10 11:55:45;;;;;;;7.45;4.10;;;31.10;99.90;;;;;;4983780;28;20326;-62
2023/09/10 11:58:12;;;;;;;6.38;4.57;;;31.20;99.80;;;;;;4982636;28;20204;-61
2023/09/10 12:00:43;;;;;;;9.93;4.65;;;31.20;99.80;;;;;;4983341;28;20240;-62
2023/09/10 12:03:09;;;;;;;7.30;4.78;;;31.20;98.70;;;;;;4985699;28;20231;-62
2023/09/10 12:05:36;;;;;;;7.10;4.10;;;31.10;98.80;;;;;;4984889;28;20207;-61
2023/09/10 12:08:05;;;;;;;6.68;4.22;;;31.20;98.30;;;;;;4982427;28;20204;-62
2023/09/10 12:10:33;;;;;;;7.32;4.05;;;31.20;98.30;;;;;;4982185;28;20717;-62
2023/09/10 12:13:03;;;;;;;8.10;4.78;;;31.30;97.80;;;;;;4985432;28;20204;-62
2023/09/10 12:15:33;;;;;;;10.82;4.80;;;31.30;98.90;;;;;;4985785;28;20228;-62
2023/09/10 12:18:04;;;;;;;6.43;4.47;;;31.20;98.90;;;;;;4982173;28;20304;-61
2023/09/10 12:20:32;;;;;;;7.82;4.00;;;31.30;98.30;;;;;;4982124;28;20611;-62
2023/09/10 12:23:00;;;;;;;4.15;3.58;;;31.30;97.40;;;;;;4986209;28;20199;-62
2023/09/10 12:25:28;;;;;;;6.65;3.60;;;31.40;97.50;;;;;;4986465;28;20254;-61
2023/09/10 12:27:55;;;;;;;5.32;3.83;;;31.50;97.90;;;;;;4982797;28;20208;-60
2023/09/10 12:30:23;;;;;;;6.65;3.60;;;31.60;97.70;;;;;;4982516;28;20235;-62
2023/09/10 12:32:51;;;;;;;6.80;3.88;;;31.60;97.80;;;;;;4985087;28;20235;-63
2023/09/10 12:35:17;;;;;;;7.72;3.97;;;31.70;97.30;;;;;;4985816;28;20238;-64
2023/09/10 12:37:52;;;;;;;7.00;4.07;;;31.90;95.90;;;;;;4983984;28;20219;-64
2023/09/10 12:40:20;;;;;;;6.38;3.85;;;31.80;96.70;;;;;;4982104;28;20367;-64
2023/09/10 12:42:49;;;;;;;6.57;4.03;;;31.80;96.50;;;;;;4983567;28;20230;-64
2023/09/10 12:45:16;;;;;;;14.00;4.68;;;31.70;96.80;;;;;;4985014;28;20228;-63
2023/09/10 12:47:44;;;;;;;6.75;5.00;;;31.70;96.40;;;;;;4983325;28;20674;-63